.
WxDataArchive / Data Records for 2015-12-19
2015-12-18 December 2015 2015-12-20

Data Records for Saturday, 19 December 2015

Time	Temp	Chill	HIndex	Humid	Dewpt	 Wind 	HiWind	WindDir	Rain 	Barom
-----	----	-----	------	-----	-----	------	------	-------	-----	-----
00:00	28.7	28.7	28.7	70	20.2	0	3	248	0.00	30.059 
00:05	28.7	28.7	28.7	70	20.2	0	3	248	0.00	30.059 
00:10	28.5	28.5	28.5	71	20.3	0	2	248	0.00	30.059 
00:15	28.5	28.5	28.5	71	20.3	1	3	248	0.00	30.061 
00:20	28.5	28.5	28.5	72	20.6	1	4	248	0.00	30.061 
00:25	28.7	28.7	28.7	73	21.2	1	3	248	0.00	30.061 
00:30	28.7	28.7	28.7	73	21.2	0	3	248	0.00	30.061 
00:35	28.7	28.7	28.7	74	21.5	1	5	248	0.00	30.061 
00:40	28.8	28.8	28.8	74	21.6	1	5	248	0.00	30.061 
00:45	28.8	28.8	28.8	74	21.6	1	4	248	0.00	30.060 
00:50	28.7	28.7	28.7	74	21.5	1	4	248	0.00	30.060 
00:55	28.7	28.7	28.7	74	21.5	1	4	248	0.00	30.060 
01:00	28.5	28.5	28.5	74	21.3	1	3	248	0.00	30.061 
01:05	28.5	28.5	28.5	74	21.3	1	4	248	0.00	30.061 
01:10	28.4	28.4	28.4	74	21.2	1	3	248	0.00	30.061 
01:15	28.4	28.4	28.4	74	21.2	1	4	248	0.00	30.064 
01:20	28.4	28.4	28.4	74	21.2	1	3	248	0.00	30.064 
01:25	28.4	28.4	28.4	74	21.2	1	6	248	0.00	30.064 
01:30	28.2	28.2	28.2	74	21.0	1	6	248	0.00	30.069 
01:35	28.2	28.2	28.2	74	21.0	1	4	248	0.00	30.069 
01:40	28.2	28.2	28.2	74	21.0	1	3	248	0.00	30.069 
01:45	28.1	28.1	28.1	73	20.6	1	5	248	0.00	30.071 
01:50	27.9	27.9	27.9	73	20.4	1	3	248	0.00	30.071 
01:55	27.9	27.9	27.9	73	20.4	2	6	248	0.00	30.071 
02:00	27.9	27.9	27.9	72	20.1	1	4	248	0.00	30.074 
02:05	27.8	27.8	27.8	71	19.6	1	4	248	0.00	30.074 
02:10	27.8	27.8	27.8	71	19.6	0	2	248	0.00	30.074 
02:15	27.6	27.6	27.6	70	19.1	1	4	292	0.00	30.078 
02:20	27.6	27.6	27.6	69	18.8	2	4	248	0.00	30.078 
02:25	27.6	27.6	27.6	69	18.8	1	3	270	0.00	30.078 
02:30	27.6	27.6	27.6	69	18.8	1	3	248	0.00	30.081 
02:35	27.5	27.5	27.5	68	18.3	1	5	248	0.00	30.081 
02:40	27.5	27.5	27.5	68	18.3	3	9	248	0.00	30.081 
02:45	27.5	27.5	27.5	67	18.0	1	4	248	0.00	30.086 
02:50	27.3	27.3	27.3	67	17.8	2	5	248	0.00	30.086 
02:55	27.3	27.3	27.3	67	17.8	1	3	248	0.00	30.086 
03:00	27.3	27.3	27.3	67	17.8	1	5	292	0.00	30.094 
03:05	27.3	27.3	27.3	67	17.8	1	3	270	0.00	30.094 
03:10	27.3	27.3	27.3	66	17.5	1	4	270	0.00	30.094 
03:15	27.5	27.5	27.5	66	17.7	1	5	248	0.00	30.099 
03:20	27.5	27.5	27.5	66	17.7	1	4	248	0.00	30.099 
03:25	27.5	27.5	27.5	67	18.0	1	4	248	0.00	30.099 
03:30	27.3	27.3	27.3	67	17.8	1	3	248	0.00	30.107 
03:35	27.3	27.3	27.3	68	18.2	1	3	248	0.00	30.107 
03:40	27.2	27.2	27.2	68	18.1	2	5	248	0.00	30.107 
03:45	27.2	27.2	27.2	68	18.1	1	3	292	0.00	30.110 
03:50	27.0	27.0	27.0	69	18.2	1	3	270	0.00	30.110 
03:55	26.9	26.9	26.9	69	18.1	1	3	270	0.00	30.110 
04:00	26.7	26.7	26.7	69	17.9	1	4	270	0.00	30.117 
04:05	26.9	26.9	26.9	69	18.1	1	4	248	0.00	30.117 
04:10	26.7	26.7	26.7	70	18.3	1	3	248	0.00	30.117 
04:15	26.6	26.6	26.6	70	18.2	1	3	248	0.00	30.117 
04:20	26.6	26.6	26.6	70	18.2	0	3	248	0.00	30.117 
04:25	26.4	26.4	26.4	70	18.0	1	3	248	0.00	30.117 
04:30	26.3	26.3	26.3	71	18.2	1	4	292	0.00	30.122 
04:35	26.1	26.1	26.1	71	18.0	0	2	248	0.00	30.122 
04:40	26.0	26.0	26.0	72	18.2	1	2	248	0.00	30.122 
04:45	25.8	25.8	25.8	72	18.0	0	3	248	0.00	30.127 
04:50	25.7	25.7	25.7	73	18.3	0	2	248	0.00	30.127 
04:55	25.7	25.7	25.7	73	18.3	1	3	248	0.00	30.127 
05:00	25.6	25.6	25.6	74	18.5	1	3	248	0.00	30.130 
05:05	25.4	25.4	25.4	75	18.6	1	3	248	0.00	30.130 
05:10	25.3	25.3	25.3	75	18.5	0	2	248	0.00	30.130 
05:15	25.3	25.3	25.3	75	18.5	0	3	248	0.00	30.137 
05:20	25.1	25.1	25.1	76	18.6	1	3	248	0.00	30.137 
05:25	25.1	25.1	25.1	77	18.9	0	3	248	0.00	30.137 
05:30	25.0	25.0	25.0	77	18.8	0	2	248	0.00	30.144 
05:35	24.8	24.8	24.8	77	18.6	0	2	248	0.00	30.144 
05:40	24.8	24.8	24.8	77	18.6	1	3	248	0.00	30.144 
05:45	24.8	24.8	24.8	78	18.9	1	3	248	0.00	30.152 
05:50	24.8	24.8	24.8	78	18.9	1	4	270	0.00	30.152 
05:55	24.7	24.7	24.7	78	18.8	1	4	270	0.00	30.152 
06:00	24.7	24.7	24.7	78	18.8	0	4	270	0.00	30.161 
06:05	24.5	24.5	24.5	79	18.9	1	3	225	0.00	30.161 
06:10	24.5	24.5	24.5	79	18.9	1	3	225	0.00	30.161 
06:15	24.5	24.5	24.5	79	18.9	1	3	248	0.00	30.174 
06:20	24.7	24.7	24.7	79	19.1	1	5	270	0.00	30.174 
06:25	24.7	24.7	24.7	79	19.1	1	3	248	0.00	30.174 
06:30	24.7	24.7	24.7	79	19.1	1	4	248	0.00	30.181 
06:35	24.5	24.5	24.5	79	18.9	1	4	248	0.00	30.181 
06:40	24.5	24.5	24.5	79	18.9	2	4	248	0.00	30.181 
06:45	24.5	24.5	24.5	79	18.9	1	3	248	0.00	30.195 
06:50	24.5	24.5	24.5	78	18.6	1	4	248	0.00	30.195 
06:55	24.5	24.5	24.5	78	18.6	1	4	248	0.00	30.195 
07:00	24.5	24.5	24.5	77	18.3	1	4	270	0.00	30.208 
07:05	24.5	24.5	24.5	76	18.0	2	5	270	0.00	30.208 
07:10	24.4	24.4	24.4	75	17.6	1	4	248	0.00	30.208 
07:15	24.4	24.4	24.4	74	17.3	1	3	270	0.00	30.220 
07:20	24.2	24.2	24.2	73	16.8	1	4	270	0.00	30.220 
07:25	24.1	24.1	24.1	73	16.7	1	3	270	0.00	30.220 
07:30	23.9	23.9	23.9	72	16.2	2	4	225	0.00	30.238 
07:35	23.6	23.6	23.6	72	15.9	1	4	270	0.00	30.238 
07:40	23.5	23.5	23.5	71	15.5	2	4	270	0.00	30.238 
07:45	23.2	23.2	23.2	71	15.2	2	5	270	0.00	30.243 
07:50	22.9	22.9	22.9	70	14.6	2	6	292	0.00	30.243 
07:55	22.5	22.5	22.5	70	14.2	1	3	292	0.00	30.243 
08:00	22.4	22.4	22.4	70	14.1	1	3	248	0.00	30.248 
08:05	22.2	22.2	22.2	70	13.9	1	4	248	0.00	30.248 
08:10	21.9	21.9	21.9	70	13.6	1	5	270	0.00	30.248 
08:15	21.9	21.9	21.9	70	13.6	1	3	270	0.00	30.259 
08:20	21.8	21.8	21.8	70	13.5	1	4	270	0.00	30.259 
08:25	21.8	21.8	21.8	70	13.5	1	4	270	0.00	30.259 
08:30	21.6	21.6	21.6	71	13.7	1	4	270	0.00	30.269 
08:35	21.6	21.6	21.6	71	13.7	0	3	270	0.00	30.269 
08:40	21.6	21.6	21.6	71	13.7	1	4	270	0.00	30.269 
08:45	21.4	21.4	21.4	71	13.5	1	5	270	0.00	30.274 
08:50	21.4	21.4	21.4	71	13.5	1	3	248	0.00	30.274 
08:55	21.4	21.4	21.4	71	13.5	1	4	248	0.00	30.274 
09:00	21.4	21.4	21.4	70	13.2	1	3	248	0.00	30.289 
09:05	21.4	21.4	21.4	70	13.2	1	5	248	0.00	30.289 
09:10	21.6	21.6	21.6	70	13.4	1	3	248	0.00	30.289 
09:15	21.6	21.6	21.6	70	13.4	1	4	248	0.00	30.294 
09:20	21.8	21.8	21.8	69	13.2	2	5	248	0.00	30.294 
09:25	21.9	21.9	21.9	69	13.3	1	4	248	0.00	30.294 
09:30	21.9	21.9	21.9	69	13.3	2	5	292	0.00	30.305 
09:35	22.1	22.1	22.1	68	13.2	2	5	248	0.00	30.305 
09:40	22.1	22.1	22.1	68	13.2	2	5	225	0.00	30.305 
09:45	22.2	22.2	22.2	68	13.3	1	3	248	0.00	30.318 
09:50	22.4	22.4	22.4	67	13.1	1	3	248	0.00	30.318 
09:55	22.4	22.4	22.4	66	12.8	2	5	270	0.00	30.318 
10:00	22.5	22.5	22.5	66	12.9	2	5	270	0.00	30.328 
10:05	22.7	22.7	22.7	65	12.7	2	4	270	0.00	30.328 
10:10	22.9	22.9	22.9	65	12.9	2	5	292	0.00	30.328 
10:15	23.0	23.0	23.0	64	12.7	1	3	270	0.00	30.338 
10:20	23.2	23.2	23.2	64	12.9	1	3	270	0.00	30.338 
10:25	23.2	23.2	23.2	63	12.5	2	4	292	0.00	30.338 
10:30	23.2	23.2	23.2	63	12.5	2	4	292	0.00	30.339 
10:35	23.3	23.3	23.3	64	13.0	1	3	270	0.00	30.339 
10:40	23.3	23.3	23.3	63	12.6	3	6	270	0.00	30.339 
10:45	23.5	23.5	23.5	63	12.8	2	4	270	0.00	30.347 
10:50	23.5	23.5	23.5	63	12.8	2	5	270	0.00	30.347 
10:55	23.6	23.6	23.6	63	12.9	1	4	248	0.00	30.347 
11:00	23.6	23.6	23.6	63	12.9	1	3	248	0.00	30.358 
11:05	23.8	23.8	23.8	62	12.7	2	4	270	0.00	30.358 
11:10	23.6	23.6	23.6	62	12.5	2	4	270	0.00	30.358 
11:15	23.9	23.9	23.9	62	12.8	1	3	270	0.00	30.360 
11:20	24.1	24.1	24.1	62	13.0	1	3	270	0.00	30.360 
11:25	24.2	24.2	24.2	62	13.1	1	4	270	0.00	30.360 
11:30	24.4	24.4	24.4	62	13.3	1	5	248	0.00	30.363 
11:35	24.4	24.4	24.4	61	12.9	1	5	248	0.00	30.363 
11:40	24.4	24.4	24.4	61	12.9	1	3	270	0.00	30.363 
11:45	24.5	24.5	24.5	62	13.4	1	5	270	0.00	30.364 
11:50	24.5	24.5	24.5	62	13.4	1	4	248	0.00	30.364 
11:55	24.7	24.7	24.7	62	13.6	1	4	292	0.00	30.364 
12:00	24.8	24.8	24.8	61	13.3	1	5	270	0.00	30.363 
12:05	25.1	25.1	25.1	61	13.6	2	5	248	0.00	30.363 
12:10	25.1	25.1	25.1	61	13.6	1	4	248	0.00	30.363 
12:15	25.0	25.0	25.0	60	13.1	2	7	248	0.00	30.360 
12:20	24.8	24.8	24.8	61	13.3	3	6	270	0.00	30.360 
12:25	24.8	24.8	24.8	61	13.3	3	7	270	0.00	30.360 
12:30	25.3	25.3	25.3	65	15.2	1	4	270	0.00	30.364 
12:35	25.6	25.6	25.6	61	14.0	2	5	270	0.00	30.364 
12:40	25.8	25.8	25.8	60	13.9	1	3	248	0.00	30.364 
12:45	26.0	26.0	26.0	59	13.7	3	6	270	0.00	30.364 
12:50	26.1	26.1	26.1	59	13.8	2	9	292	0.00	30.364 
12:55	26.3	26.3	26.3	58	13.6	2	5	270	0.00	30.364 
13:00	26.4	26.4	26.4	58	13.7	2	5	225	0.00	30.363 
13:05	26.4	26.4	26.4	58	13.7	2	5	248	0.00	30.363 
13:10	26.6	26.6	26.6	57	13.4	2	5	270	0.00	30.363 
13:15	26.6	26.6	26.6	56	13.0	2	7	292	0.00	30.363 
13:20	26.9	26.9	26.9	56	13.3	1	5	248	0.00	30.363 
13:25	27.3	27.3	27.3	56	13.7	1	4	292	0.00	30.363 
13:30	27.3	27.3	27.3	55	13.3	1	4	248	0.00	30.362 
13:35	27.5	27.5	27.5	55	13.5	2	4	248	0.00	30.362 
13:40	27.5	27.5	27.5	54	13.1	1	3	248	0.00	30.362 
13:45	27.8	27.8	27.8	54	13.3	1	4	248	0.00	30.362 
13:50	27.8	27.8	27.8	54	13.3	2	5	292	0.00	30.362 
13:55	28.1	28.1	28.1	53	13.2	2	4	248	0.00	30.362 
14:00	28.2	28.2	28.2	53	13.3	1	4	270	0.00	30.361 
14:05	28.5	28.5	28.5	52	13.1	1	5	248	0.00	30.361 
14:10	28.4	28.4	28.4	50	12.2	2	5	248	0.00	30.361 
14:15	28.4	28.4	28.4	50	12.2	2	5	248	0.00	30.361 
14:20	28.5	28.5	28.5	50	12.3	2	5	248	0.00	30.361 
14:25	28.5	28.5	28.5	50	12.3	2	7	270	0.00	30.361 
14:30	28.5	28.5	28.5	48	11.3	2	5	248	0.00	30.361 
14:35	28.7	28.7	28.7	48	11.5	1	4	248	0.00	30.361 
14:40	28.8	28.8	28.8	48	11.6	2	6	248	0.00	30.361 
14:45	29.0	29.0	29.0	48	11.8	2	6	248	0.00	30.363 
14:50	29.0	29.0	29.0	48	11.8	1	3	248	0.00	30.363 
14:55	29.3	29.3	29.3	48	12.1	1	6	248	0.00	30.363 
15:00	29.3	29.3	29.3	47	11.6	2	4	248	0.00	30.363 
15:05	29.4	29.4	29.4	48	12.2	2	5	292	0.00	30.363 
15:10	29.3	29.3	29.3	48	12.1	1	6	248	0.00	30.363 
15:15	29.4	29.4	29.4	48	12.2	2	4	248	0.00	30.366 
15:20	29.4	29.4	29.4	48	12.2	2	5	270	0.00	30.366 
15:25	29.4	29.4	29.4	49	12.6	1	4	270	0.00	30.366 
15:30	29.4	29.4	29.4	48	12.2	1	5	248	0.00	30.374 
15:35	29.7	29.7	29.7	49	12.9	1	5	248	0.00	30.374 
15:40	29.5	29.5	29.5	48	12.3	2	4	248	0.00	30.374 
15:45	29.4	29.4	29.4	48	12.2	3	6	270	0.00	30.379 
15:50	29.1	29.1	29.1	48	11.9	3	6	292	0.00	30.379 
15:55	29.1	29.1	29.1	49	12.4	1	3	270	0.00	30.379 
16:00	29.1	29.1	29.1	49	12.4	1	3	270	0.00	30.381 
16:05	29.1	29.1	29.1	49	12.4	1	4	248	0.00	30.381 
16:10	29.1	29.1	29.1	49	12.4	1	3	270	0.00	30.381 
16:15	29.3	29.3	29.3	49	12.5	0	2	270	0.00	30.386 
16:20	29.3	29.3	29.3	48	12.1	1	4	270	0.00	30.386 
16:25	29.3	29.3	29.3	49	12.5	0	3	270	0.00	30.386 
16:30	29.1	29.1	29.1	48	11.9	1	3	270	0.00	30.394 
16:35	29.1	29.1	29.1	48	11.9	1	3	270	0.00	30.394 
16:40	29.0	29.0	29.0	48	11.8	1	3	248	0.00	30.394 
16:45	28.8	28.8	28.8	49	12.1	0	3	225	0.00	30.397 
16:50	28.7	28.7	28.7	49	12.0	1	4	248	0.00	30.397 
16:55	28.7	28.7	28.7	49	12.0	0	4	248	0.00	30.397 
17:00	28.5	28.5	28.5	50	12.3	0	2	248	0.00	30.398 
17:05	28.4	28.4	28.4	50	12.2	0	2	248	0.00	30.398 
17:10	28.2	28.2	28.2	50	12.0	0	3	248	0.00	30.398 
17:15	28.2	28.2	28.2	50	12.0	1	4	248	0.00	30.401 
17:20	28.1	28.1	28.1	50	11.9	0	3	248	0.00	30.401 
17:25	28.1	28.1	28.1	51	12.3	0	2	248	0.00	30.401 
17:30	27.9	27.9	27.9	50	11.7	0	2	248	0.00	30.408 
17:35	27.9	27.9	27.9	51	12.1	0	2	248	0.00	30.408 
17:40	27.8	27.8	27.8	51	12.1	0	3	248	0.00	30.408 
17:45	27.8	27.8	27.8	51	12.1	0	2	248	0.00	30.414 
17:50	27.6	27.6	27.6	52	12.3	0	3	248	0.00	30.414 
17:55	27.6	27.6	27.6	52	12.3	0	2	248	0.00	30.414 
18:00	27.6	27.6	27.6	52	12.3	0	3	248	0.00	30.423 
18:05	27.5	27.5	27.5	53	12.6	0	2	248	0.00	30.423 
18:10	27.5	27.5	27.5	53	12.6	0	1	248	0.00	30.423 
18:15	27.5	27.5	27.5	53	12.6	0	1	248	0.00	30.427 
18:20	27.3	27.3	27.3	53	12.5	0	2	248	0.00	30.427 
18:25	27.3	27.3	27.3	54	12.9	0	1	248	0.00	30.427 
18:30	27.3	27.3	27.3	54	12.9	0	2	248	0.00	30.431 
18:35	27.2	27.2	27.2	54	12.8	0	1	248	0.00	30.431 
18:40	27.2	27.2	27.2	54	12.8	0	2	248	0.00	30.431 
18:45	27.2	27.2	27.2	54	12.8	0	1	248	0.00	30.435 
18:50	27.2	27.2	27.2	54	12.8	0	1	248	0.00	30.435 
18:55	27.0	27.0	27.0	54	12.6	0	1	248	0.00	30.435 
19:00	27.0	27.0	27.0	55	13.0	0	1	248	0.00	30.434 
19:05	26.9	26.9	26.9	55	12.9	0	1	248	0.00	30.434 
19:10	26.9	26.9	26.9	55	12.9	0	1	248	0.00	30.434 
19:15	26.7	26.7	26.7	56	13.1	0	0	---	0.00	30.438 
19:20	26.6	26.6	26.6	56	13.0	0	1	248	0.00	30.438 
19:25	26.6	26.6	26.6	57	13.4	0	1	248	0.00	30.438 
19:30	26.4	26.4	26.4	57	13.3	0	0	---	0.00	30.446 
19:35	26.3	26.3	26.3	57	13.2	0	0	---	0.00	30.446 
19:40	26.1	26.1	26.1	58	13.4	0	0	---	0.00	30.446 
19:45	26.0	26.0	26.0	58	13.3	0	0	---	0.00	30.448 
19:50	25.8	25.8	25.8	58	13.1	0	0	---	0.00	30.448 
19:55	25.7	25.7	25.7	58	13.0	0	1	248	0.00	30.448 
20:00	25.7	25.7	25.7	59	13.4	0	0	---	0.00	30.450 
20:05	25.6	25.6	25.6	59	13.3	0	0	---	0.00	30.450 
20:10	25.6	25.6	25.6	59	13.3	0	0	---	0.00	30.450 
20:15	25.6	25.6	25.6	59	13.3	0	1	248	0.00	30.454 
20:20	25.6	25.6	25.6	59	13.3	0	0	---	0.00	30.454 
20:25	25.6	25.6	25.6	60	13.7	0	0	---	0.00	30.454 
20:30	25.4	25.4	25.4	60	13.5	0	1	248	0.00	30.458 
20:35	25.3	25.3	25.3	60	13.4	0	0	---	0.00	30.458 
20:40	25.1	25.1	25.1	60	13.2	0	0	---	0.00	30.458 
20:45	25.1	25.1	25.1	60	13.2	0	0	---	0.00	30.462 
20:50	25.0	25.0	25.0	61	13.5	0	0	---	0.00	30.462 
20:55	24.7	24.7	24.7	61	13.2	0	0	---	0.00	30.462 
21:00	24.5	24.5	24.5	62	13.4	0	0	---	0.00	30.463 
21:05	24.4	24.4	24.4	62	13.3	0	0	---	0.00	30.463 
21:10	24.2	24.2	24.2	62	13.1	0	0	---	0.00	30.463 
21:15	24.1	24.1	24.1	63	13.4	0	0	---	0.00	30.466 
21:20	23.9	23.9	23.9	64	13.5	0	0	---	0.00	30.466 
21:25	23.9	23.9	23.9	64	13.5	0	0	---	0.00	30.466 
21:30	23.9	23.9	23.9	65	13.9	0	0	---	0.00	30.464 
21:35	23.8	23.8	23.8	65	13.8	0	0	---	0.00	30.464 
21:40	23.8	23.8	23.8	65	13.8	0	0	---	0.00	30.464 
21:45	23.6	23.6	23.6	65	13.6	0	0	---	0.00	30.465 
21:50	23.6	23.6	23.6	65	13.6	0	0	---	0.00	30.465 
21:55	23.6	23.6	23.6	66	13.9	0	0	---	0.00	30.465 
22:00	23.5	23.5	23.5	66	13.8	0	0	---	0.00	30.462 
22:05	23.5	23.5	23.5	66	13.8	0	0	---	0.00	30.462 
22:10	23.3	23.3	23.3	67	14.0	0	0	---	0.00	30.462 
22:15	23.3	23.3	23.3	67	14.0	0	0	---	0.00	30.461 
22:20	23.2	23.2	23.2	67	13.9	0	0	---	0.00	30.461 
22:25	23.2	23.2	23.2	67	13.9	0	0	---	0.00	30.461 
22:30	23.0	23.0	23.0	68	14.0	0	0	---	0.00	30.466 
22:35	22.9	22.9	22.9	68	13.9	0	0	---	0.00	30.466 
22:40	22.7	22.7	22.7	68	13.8	0	0	---	0.00	30.466 
22:45	22.5	22.5	22.5	68	13.6	0	0	---	0.00	30.464 
22:50	22.4	22.4	22.4	69	13.8	0	0	---	0.00	30.464 
22:55	22.2	22.2	22.2	69	13.6	0	0	---	0.00	30.464 
23:00	22.2	22.2	22.2	69	13.6	0	0	---	0.00	30.454 
23:05	22.1	22.1	22.1	70	13.8	0	0	---	0.00	30.454 
23:10	22.1	22.1	22.1	71	14.2	0	0	---	0.00	30.454 
23:15	22.1	22.1	22.1	71	14.2	0	0	---	0.00	30.452 
23:20	22.1	22.1	22.1	72	14.5	0	0	---	0.00	30.452 
23:25	22.2	22.2	22.2	72	14.6	0	0	---	0.00	30.452 
23:30	22.1	22.1	22.1	71	14.2	0	0	---	0.00	30.460 
23:35	22.1	22.1	22.1	71	14.2	0	0	---	0.00	30.460 
23:40	22.1	22.1	22.1	72	14.5	0	0	---	0.00	30.460 
23:45	21.9	21.9	21.9	72	14.3	0	0	---	0.00	30.462 
23:50	21.9	21.9	21.9	73	14.6	0	0	---	0.00	30.462 
23:55	21.9	21.9	21.9	73	14.6	0	0	---	0.00	30.462 

CoCoRaHS
IN-AL-39
A2 Web Hosting
Creative Commons License
GoDaddy
search engine by freefind advanced

loaded 2018-11-20 15:40:38 • last modified 2010-11-18 10:43:29
Privacy PolicyDisclaimer
• wx.awcolley.com is powered by PmWiki v.2002016 •
• all content (unless otherwise noted) © 2018 A W Colley